Time,TemperatureF,DewpointF,PressureIn,WindDirection,WindDirectionDegrees,WindSpeedMPH,WindSpeedGustMPH,Humidity,HourlyPrecipIn,Conditions,Clouds,dailyrainin,SoftwareType,DateUTC
2014-01-21 00:00:00,15.5,12.8,30.05,SSE,166,2.0,6.0,89,0.00,,RMK 146.475 MHz QRV !SN!,0.00,WUHU216DAVISVP2,2014-01-21 05:00:00,
2014-01-21 00:01:00,15.4,12.7,30.05,SSE,166,1.0,6.0,89,0.00,,RMK 146.475 MHz QRV !SN!,0.00,WUHU216DAVISVP2,2014-01-21 05:01:00,
2014-01-21 00:06:00,15.4,12.7,30.04,South,169,0.0,6.0,89,0.00,,RMK 146.475 MHz QRV !SN!,0.00,WUHU216DAVISVP2,2014-01-21 05:06:00,
2014-01-21 00:11:00,15.4,12.9,30.04,South,173,2.0,6.0,90,0.00,,RMK 146.475 MHz QRV !SN!,0.00,WUHU216DAVISVP2,2014-01-21 05:11:00,
2014-01-21 00:16:00,15.4,12.9,30.05,SE,145,3.0,6.0,90,0.00,,RMK 146.475 MHz QRV !SN!,0.00,WUHU216DAVISVP2,2014-01-21 05:16:00,
2014-01-21 00:21:00,15.3,12.6,30.04,South,173,1.0,6.0,89,0.00,,RMK 146.475 MHz QRV !SN!,0.00,WUHU216DAVISVP2,2014-01-21 05:21:00,
2014-01-21 00:26:00,15.3,12.6,30.04,SE,145,2.0,8.0,89,0.00,,RMK 146.475 MHz QRV !SN!,0.00,WUHU216DAVISVP2,2014-01-21 05:26:00,
2014-01-21 00:31:00,15.3,12.6,30.04,South,179,2.0,8.0,89,0.00,,RMK 146.475 MHz QRV !SN!,0.00,WUHU216DAVISVP2,2014-01-21 05:31:00,
2014-01-21 00:36:00,15.2,12.5,30.04,SSE,163,2.0,7.0,89,0.00,,RMK 146.475 MHz QRV !SN!,0.00,WUHU216DAVISVP2,2014-01-21 05:36:00,
2014-01-21 00:41:00,15.3,12.6,30.04,South,190,0.0,7.0,89,0.00,,RMK 146.475 MHz QRV !SN!,0.00,WUHU216DAVISVP2,2014-01-21 05:41:00,
2014-01-21 00:46:00,15.2,12.5,30.04,SSE,168,0.0,5.0,89,0.00,,RMK 146.475 MHz QRV !SN!,0.00,WUHU216DAVISVP2,2014-01-21 05:46:00,
2014-01-21 00:51:00,15.1,12.4,30.03,SSW,197,2.0,6.0,89,0.00,,RMK 146.475 MHz QRV !SN!,0.00,WUHU216DAVISVP2,2014-01-21 05:51:00,
2014-01-21 00:56:00,14.8,12.1,30.04,SSE,150,1.0,6.0,89,0.00,,RMK 146.475 MHz QRV !SN!,0.00,WUHU216DAVISVP2,2014-01-21 05:56:00,
2014-01-21 00:58:00,14.7,12.0,30.04,South,172,1.0,6.0,89,0.00,,RMK 146.475 MHz QRV !SN!,0.00,WUHU216DAVISVP2,2014-01-21 05:58:00,
2014-01-21 01:03:00,14.7,12.0,30.03,South,188,2.0,6.0,89,0.00,,RMK 146.475 MHz QRV !SN!,0.00,WUHU216DAVISVP2,2014-01-21 06:03:00,
2014-01-21 01:08:00,14.5,11.6,30.03,SSW,194,2.0,6.0,88,0.00,,RMK 146.475 MHz QRV !SN!,0.00,WUHU216DAVISVP2,2014-01-21 06:08:00,
2014-01-21 01:13:00,14.4,11.5,30.02,SSE,150,0.0,5.0,88,0.00,,RMK 146.475 MHz QRV !SN!,0.00,WUHU216DAVISVP2,2014-01-21 06:13:00,
2014-01-21 01:18:00,14.3,11.4,30.01,SSE,162,3.0,5.0,88,0.00,,RMK 146.475 MHz QRV !SN!,0.00,WUHU216DAVISVP2,2014-01-21 06:18:00,
2014-01-21 01:23:00,14.2,11.0,30.02,SSW,194,1.0,5.0,87,0.00,,RMK 146.475 MHz QRV !SN!,0.00,WUHU216DAVISVP2,2014-01-21 06:23:00,
2014-01-21 01:28:00,14.2,11.0,30.03,SE,134,0.0,5.0,87,0.00,,RMK 146.475 MHz QRV !SN!,0.00,WUHU216DAVISVP2,2014-01-21 06:28:00,
2014-01-21 01:33:00,14.2,11.0,30.03,SSE,155,1.0,4.0,87,0.00,,RMK 146.475 MHz QRV !SN!,0.00,WUHU216DAVISVP2,2014-01-21 06:33:00,
2014-01-21 01:38:00,14.2,11.0,30.03,SE,143,0.0,4.0,87,0.00,,RMK 146.475 MHz QRV !SN!,0.00,WUHU216DAVISVP2,2014-01-21 06:38:00,
2014-01-21 01:43:00,14.1,10.9,30.03,SSE,159,0.0,5.0,87,0.00,,RMK 146.475 MHz QRV !SN!,0.00,WUHU216DAVISVP2,2014-01-21 06:43:00,
2014-01-21 01:48:00,14.0,10.8,30.03,South,184,3.0,5.0,87,0.00,,RMK 146.475 MHz QRV !SN!,0.00,WUHU216DAVISVP2,2014-01-21 06:48:00,
2014-01-21 01:53:00,13.8,10.6,30.03,SSE,150,0.0,5.0,87,0.00,,RMK 146.475 MHz QRV !SN!,0.00,WUHU216DAVISVP2,2014-01-21 06:53:00,
2014-01-21 01:58:00,13.8,10.6,30.03,South,171,2.0,5.0,87,0.00,,RMK 146.475 MHz QRV !SN!,0.00,WUHU216DAVISVP2,2014-01-21 06:58:00,
2014-01-21 02:03:00,13.7,10.3,30.04,SSE,161,1.0,5.0,86,0.00,,RMK 146.475 MHz QRV !SN!,0.00,WUHU216DAVISVP2,2014-01-21 07:03:00,
2014-01-21 02:08:00,13.6,9.9,30.05,SSW,205,0.0,6.0,85,0.00,,RMK 146.475 MHz QRV !SN!,0.00,WUHU216DAVISVP2,2014-01-21 07:08:00,
2014-01-21 02:13:00,13.6,9.9,30.05,SSW,200,0.0,6.0,85,0.00,,RMK 146.475 MHz QRV !SN!,0.00,WUHU216DAVISVP2,2014-01-21 07:13:00,
2014-01-21 02:18:00,13.6,9.9,30.06,South,190,1.0,6.0,85,0.00,,RMK 146.475 MHz QRV !SN!,0.00,WUHU216DAVISVP2,2014-01-21 07:18:00,
2014-01-21 02:23:00,13.6,9.9,30.06,South,176,0.0,5.0,85,0.00,,RMK 146.475 MHz QRV !SN!,0.00,WUHU216DAVISVP2,2014-01-21 07:23:00,
2014-01-21 02:28:00,13.5,9.8,30.06,South,169,1.0,5.0,85,0.00,,RMK 146.475 MHz QRV !SN!,0.00,WUHU216DAVISVP2,2014-01-21 07:28:00,
2014-01-21 02:33:00,13.5,9.8,30.06,SSE,160,0.0,4.0,85,0.00,,RMK 146.475 MHz QRV !SN!,0.00,WUHU216DAVISVP2,2014-01-21 07:33:00,
2014-01-21 02:38:00,13.6,9.9,30.06,SSE,160,1.0,4.0,85,0.00,,RMK 146.475 MHz QRV !SN!,0.00,WUHU216DAVISVP2,2014-01-21 07:38:00,
2014-01-21 02:43:00,13.6,9.9,30.05,SSE,163,0.0,2.0,85,0.00,,RMK 146.475 MHz QRV !SN!,0.00,WUHU216DAVISVP2,2014-01-21 07:43:00,
2014-01-21 02:48:00,13.6,9.9,30.05,SSE,165,0.0,3.0,85,0.00,,RMK 146.475 MHz QRV !SN!,0.00,WUHU216DAVISVP2,2014-01-21 07:48:00,
2014-01-21 02:53:00,13.6,9.9,30.05,South,190,0.0,3.0,85,0.00,,RMK 146.475 MHz QRV !SN!,0.00,WUHU216DAVISVP2,2014-01-21 07:53:00,
2014-01-21 02:58:00,13.6,10.2,30.05,South,172,0.0,3.0,86,0.00,,RMK 146.475 MHz QRV !SN!,0.00,WUHU216DAVISVP2,2014-01-21 07:58:00,
2014-01-21 03:09:00,13.3,9.9,30.05,SE,143,0.0,3.0,86,0.00,,RMK 146.475 MHz QRV !SN!,0.00,WUHU216DAVISVP2,2014-01-21 08:09:00,
2014-01-21 03:14:00,13.3,9.9,30.05,SSE,151,0.0,3.0,86,0.00,,RMK 146.475 MHz QRV !SN!,0.00,WUHU216DAVISVP2,2014-01-21 08:14:00,
2014-01-21 03:19:00,13.3,9.9,30.06,SSE,162,0.0,3.0,86,0.00,,RMK 146.475 MHz QRV !SN!,0.00,WUHU216DAVISVP2,2014-01-21 08:19:00,
2014-01-21 03:24:00,13.2,9.5,30.06,SSE,160,0.0,3.0,85,0.00,,RMK 146.475 MHz QRV !SN!,0.00,WUHU216DAVISVP2,2014-01-21 08:24:00,
2014-01-21 03:29:00,13.2,9.2,30.07,SSE,162,0.0,3.0,84,0.00,,RMK 146.475 MHz QRV !SN!,0.00,WUHU216DAVISVP2,2014-01-21 08:29:00,
2014-01-21 03:34:00,13.2,9.0,30.07,SSE,159,1.0,3.0,83,0.00,,RMK 146.475 MHz QRV !SN!,0.00,WUHU216DAVISVP2,2014-01-21 08:34:00,
2014-01-21 03:39:00,13.2,8.7,30.07,South,187,1.0,4.0,82,0.00,,RMK 146.475 MHz QRV !SN!,0.00,WUHU216DAVISVP2,2014-01-21 08:39:00,
2014-01-21 03:44:00,13.0,8.0,30.06,South,169,0.0,4.0,80,0.00,,RMK 146.475 MHz QRV !SN!,0.00,WUHU216DAVISVP2,2014-01-21 08:44:00,
2014-01-21 03:49:00,13.0,8.0,30.06,SE,146,0.0,5.0,80,0.00,,RMK 146.475 MHz QRV !SN!,0.00,WUHU216DAVISVP2,2014-01-21 08:49:00,
2014-01-21 03:54:00,12.9,7.9,30.06,SSW,197,2.0,5.0,80,0.00,,RMK 146.475 MHz QRV !SN!,0.00,WUHU216DAVISVP2,2014-01-21 08:54:00,
2014-01-21 03:59:00,13.0,8.0,30.05,SSW,210,1.0,5.0,80,0.00,,RMK 146.475 MHz QRV !SN!,0.00,WUHU216DAVISVP2,2014-01-21 08:59:00,
2014-01-21 04:04:00,13.0,8.0,30.05,SSE,154,0.0,5.0,80,0.00,,RMK 146.475 MHz QRV !SN!,0.00,WUHU216DAVISVP2,2014-01-21 09:04:00,
2014-01-21 04:09:00,13.0,8.0,30.05,SSW,205,2.0,7.0,80,0.00,,RMK 146.475 MHz QRV !SN!,0.00,WUHU216DAVISVP2,2014-01-21 09:09:00,
2014-01-21 04:14:00,12.9,7.9,30.04,South,176,1.0,7.0,80,0.00,,RMK 146.475 MHz QRV !SN!,0.00,WUHU216DAVISVP2,2014-01-21 09:14:00,
2014-01-21 04:19:00,12.9,7.9,30.04,South,169,1.0,7.0,80,0.00,,RMK 146.475 MHz QRV !SN!,0.00,WUHU216DAVISVP2,2014-01-21 09:19:00,
2014-01-21 04:24:00,12.9,7.9,30.04,South,188,1.0,7.0,80,0.00,,RMK 146.475 MHz QRV !SN!,0.00,WUHU216DAVISVP2,2014-01-21 09:24:00,
2014-01-21 04:29:00,12.8,7.8,30.04,South,172,0.0,6.0,80,0.00,,RMK 146.475 MHz QRV !SN!,0.00,WUHU216DAVISVP2,2014-01-21 09:29:00,
2014-01-21 04:34:00,12.7,8.0,30.04,SSE,159,1.0,6.0,81,0.00,,RMK 146.475 MHz QRV !SN!,0.00,WUHU216DAVISVP2,2014-01-21 09:34:00,
2014-01-21 04:39:00,12.7,8.0,30.04,SW,225,4.0,5.0,81,0.00,,RMK 146.475 MHz QRV !SN!,0.00,WUHU216DAVISVP2,2014-01-21 09:39:00,
2014-01-21 04:44:00,12.5,7.8,30.04,South,186,3.0,4.0,81,0.00,,RMK 146.475 MHz QRV !SN!,0.00,WUHU216DAVISVP2,2014-01-21 09:44:00,
2014-01-21 04:49:00,12.4,7.9,30.04,SSE,166,0.0,4.0,82,0.00,,RMK 146.475 MHz QRV !SN!,0.00,WUHU216DAVISVP2,2014-01-21 09:49:00,
2014-01-21 04:54:00,12.3,7.8,30.04,SSE,157,1.0,7.0,82,0.00,,RMK 146.475 MHz QRV !SN!,0.00,WUHU216DAVISVP2,2014-01-21 09:54:00,
2014-01-21 04:59:00,12.2,8.0,30.04,SSE,159,2.0,7.0,83,0.00,,RMK 146.475 MHz QRV !SN!,0.00,WUHU216DAVISVP2,2014-01-21 09:59:00,
2014-01-21 05:04:00,12.1,7.9,30.04,South,179,0.0,6.0,83,0.00,,RMK 146.475 MHz QRV !SN!,0.00,WUHU216DAVISVP2,2014-01-21 10:04:00,
2014-01-21 05:09:00,12.0,8.1,30.04,SSE,162,0.0,3.0,84,0.00,,RMK 146.475 MHz QRV !SN!,0.00,WUHU216DAVISVP2,2014-01-21 10:09:00,
2014-01-21 05:14:00,11.9,8.2,30.04,SSE,164,0.0,3.0,85,0.00,,RMK 146.475 MHz QRV !SN!,0.00,WUHU216DAVISVP2,2014-01-21 10:14:00,
2014-01-21 05:19:00,12.0,8.4,30.04,SE,145,0.0,3.0,85,0.00,,RMK 146.475 MHz QRV !SN!,0.00,WUHU216DAVISVP2,2014-01-21 10:19:00,
2014-01-21 05:24:00,11.8,8.1,30.05,South,184,0.0,3.0,85,0.00,,RMK 146.475 MHz QRV !SN!,0.00,WUHU216DAVISVP2,2014-01-21 10:24:00,
2014-01-21 05:29:00,11.8,8.1,30.05,South,184,1.0,3.0,85,0.00,,RMK 146.475 MHz QRV !SN!,0.00,WUHU216DAVISVP2,2014-01-21 10:29:00,
2014-01-21 05:34:00,11.7,8.0,30.05,ENE,75,0.0,3.0,85,0.00,,RMK 146.475 MHz QRV !SN!,0.00,WUHU216DAVISVP2,2014-01-21 10:34:00,
2014-01-21 05:39:00,11.6,7.9,30.06,SSE,163,1.0,3.0,85,0.00,,RMK 146.475 MHz QRV !SN!,0.00,WUHU216DAVISVP2,2014-01-21 10:39:00,
2014-01-21 05:44:00,11.5,7.8,30.06,SSE,162,0.0,2.0,85,0.00,,RMK 146.475 MHz QRV !SN!,0.00,WUHU216DAVISVP2,2014-01-21 10:44:00,
2014-01-21 05:49:00,11.5,7.8,30.06,SSE,162,0.0,2.0,85,0.00,,RMK 146.475 MHz QRV !SN!,0.00,WUHU216DAVISVP2,2014-01-21 10:49:00,
2014-01-21 05:54:00,11.3,7.6,30.07,SSE,148,0.0,2.0,85,0.00,,RMK 146.475 MHz QRV !SN!,0.00,WUHU216DAVISVP2,2014-01-21 10:54:00,
2014-01-21 05:59:00,11.2,7.5,30.07,SSE,148,0.0,2.0,85,0.00,,RMK 146.475 MHz QRV !SN!,0.00,WUHU216DAVISVP2,2014-01-21 10:59:00,
2014-01-21 06:04:00,11.2,7.5,30.07,SSE,165,2.0,2.0,85,0.00,,RMK 146.475 MHz QRV !SN!,0.00,WUHU216DAVISVP2,2014-01-21 11:04:00,
2014-01-21 06:09:00,11.1,7.5,30.07,SSE,167,0.0,3.0,85,0.00,,RMK 146.475 MHz QRV !SN!,0.00,WUHU216DAVISVP2,2014-01-21 11:09:00,
2014-01-21 06:14:00,11.0,7.4,30.07,SSE,167,0.0,3.0,85,0.00,,RMK 146.475 MHz QRV !SN!,0.00,WUHU216DAVISVP2,2014-01-21 11:14:00,
2014-01-21 06:19:00,11.0,7.3,30.07,SSE,168,0.0,3.0,85,0.00,,RMK 146.475 MHz QRV !SN!,0.00,WUHU216DAVISVP2,2014-01-21 11:19:00,
2014-01-21 06:24:00,10.9,7.2,30.07,SE,145,2.0,3.0,85,0.00,,RMK 146.475 MHz QRV !SN!,0.00,WUHU216DAVISVP2,2014-01-21 11:24:00,
2014-01-21 06:29:00,10.9,7.2,30.07,South,179,1.0,2.0,85,0.00,,RMK 146.475 MHz QRV !SN!,0.00,WUHU216DAVISVP2,2014-01-21 11:29:00,
2014-01-21 06:34:00,10.9,7.2,30.07,South,181,0.0,2.0,85,0.00,,RMK 146.475 MHz QRV !SN!,0.00,WUHU216DAVISVP2,2014-01-21 11:34:00,
2014-01-21 06:39:00,10.8,7.1,30.07,SSE,163,0.0,3.0,85,0.00,,RMK 146.475 MHz QRV !SN!,0.00,WUHU216DAVISVP2,2014-01-21 11:39:00,
2014-01-21 06:44:00,10.8,7.1,30.08,SE,141,1.0,3.0,85,0.00,,RMK 146.475 MHz QRV !SN!,0.00,WUHU216DAVISVP2,2014-01-21 11:44:00,
2014-01-21 06:49:00,10.7,7.3,30.08,SE,142,0.0,3.0,86,0.00,,RMK 146.475 MHz QRV !SN!,0.00,WUHU216DAVISVP2,2014-01-21 11:49:00,
2014-01-21 06:54:00,10.8,7.4,30.08,SSE,160,1.0,3.0,86,0.00,,RMK 146.475 MHz QRV !SN!,0.00,WUHU216DAVISVP2,2014-01-21 11:54:00,
2014-01-21 06:59:00,10.9,7.5,30.09,SSE,166,0.0,2.0,86,0.00,,RMK 146.475 MHz QRV !SN!,0.00,WUHU216DAVISVP2,2014-01-21 11:59:00,
2014-01-21 07:04:00,11.0,7.9,30.09,SSE,165,0.0,2.0,87,0.00,,RMK 146.475 MHz QRV !SN!,0.00,WUHU216DAVISVP2,2014-01-21 12:04:00,
2014-01-21 07:09:00,11.0,7.9,30.10,SSE,160,1.0,3.0,87,0.00,,RMK 146.475 MHz QRV !SN!,0.00,WUHU216DAVISVP2,2014-01-21 12:09:00,
2014-01-21 07:14:00,11.0,7.6,30.10,SSW,200,1.0,3.0,86,0.00,,RMK 146.475 MHz QRV !SN!,0.00,WUHU216DAVISVP2,2014-01-21 12:14:00,
2014-01-21 07:19:00,11.1,7.7,30.10,SSE,152,0.0,5.0,86,0.00,,RMK 146.475 MHz QRV !SN!,0.00,WUHU216DAVISVP2,2014-01-21 12:19:00,
2014-01-21 07:24:00,11.1,7.7,30.11,SSE,148,0.0,5.0,86,0.00,,RMK 146.475 MHz QRV !SN!,0.00,WUHU216DAVISVP2,2014-01-21 12:24:00,
2014-01-21 07:29:00,11.2,7.8,30.11,SSE,149,0.0,5.0,86,0.00,,RMK 146.475 MHz QRV !SN!,0.00,WUHU216DAVISVP2,2014-01-21 12:29:00,
2014-01-21 07:34:00,11.2,8.0,30.11,South,171,0.0,3.0,87,0.00,,RMK 146.475 MHz QRV !SN!,0.00,WUHU216DAVISVP2,2014-01-21 12:34:00,
2014-01-21 07:39:00,11.3,8.1,30.11,South,172,0.0,3.0,87,0.00,,RMK 146.475 MHz QRV !SN!,0.00,WUHU216DAVISVP2,2014-01-21 12:39:00,
2014-01-21 07:44:00,11.3,8.2,30.11,SSE,159,4.0,4.0,87,0.00,,RMK 146.475 MHz QRV !SN!,0.00,WUHU216DAVISVP2,2014-01-21 12:44:00,
2014-01-21 07:49:00,11.2,7.8,30.11,SW,221,4.0,7.0,86,0.00,,RMK 146.475 MHz QRV !SN!,0.00,WUHU216DAVISVP2,2014-01-21 12:49:00,
2014-01-21 07:54:00,11.1,7.7,30.11,South,187,0.0,7.0,86,0.00,,RMK 146.475 MHz QRV !SN!,0.00,WUHU216DAVISVP2,2014-01-21 12:54:00,
2014-01-21 07:59:00,11.0,7.6,30.10,South,172,2.0,7.0,86,0.00,,RMK 146.475 MHz QRV !SN!,0.00,WUHU216DAVISVP2,2014-01-21 12:59:00,
2014-01-21 08:04:00,11.0,7.6,30.11,SE,144,1.0,7.0,86,0.00,,RMK 146.475 MHz QRV !SN!,0.00,WUHU216DAVISVP2,2014-01-21 13:04:00,
2014-01-21 08:09:00,11.0,7.3,30.11,SSE,151,5.0,8.0,85,0.00,,RMK 146.475 MHz QRV !SN!,0.00,WUHU216DAVISVP2,2014-01-21 13:09:00,
2014-01-21 08:14:00,11.0,7.1,30.11,SSE,153,0.0,8.0,84,0.00,,RMK 146.475 MHz QRV !SN!,0.00,WUHU216DAVISVP2,2014-01-21 13:14:00,
2014-01-21 08:19:00,10.9,6.7,30.12,SW,219,4.0,8.0,83,0.00,,RMK 146.475 MHz QRV !SN!,0.00,WUHU216DAVISVP2,2014-01-21 13:19:00,
2014-01-21 08:24:00,10.9,6.2,30.11,South,174,2.0,9.0,81,0.00,,RMK 146.475 MHz QRV !SN!,0.00,WUHU216DAVISVP2,2014-01-21 13:24:00,
2014-01-21 08:29:00,10.9,5.9,30.12,South,169,1.0,9.0,80,0.00,,RMK 146.475 MHz QRV !SN!,0.00,WUHU216DAVISVP2,2014-01-21 13:29:00,
2014-01-21 08:34:00,10.9,5.7,30.11,SSE,160,0.0,9.0,79,0.00,,RMK 146.475 MHz QRV !SN!,0.00,WUHU216DAVISVP2,2014-01-21 13:34:00,
2014-01-21 08:39:00,11.0,5.5,30.12,SSE,163,1.0,10.0,78,0.00,,RMK 146.475 MHz QRV !SN!,0.00,WUHU216DAVISVP2,2014-01-21 13:39:00,
2014-01-21 08:44:00,11.0,5.2,30.12,South,172,4.0,10.0,77,0.00,,RMK 146.475 MHz QRV !SN!,0.00,WUHU216DAVISVP2,2014-01-21 13:44:00,
2014-01-21 08:49:00,11.0,5.2,30.12,SSW,198,2.0,10.0,77,0.00,,RMK 146.475 MHz QRV !SN!,0.00,WUHU216DAVISVP2,2014-01-21 13:49:00,
2014-01-21 08:54:00,10.9,5.4,30.12,SSW,201,2.0,10.0,78,0.00,,RMK 146.475 MHz QRV !SN!,0.00,WUHU216DAVISVP2,2014-01-21 13:54:00,
2014-01-21 08:59:00,10.9,5.4,30.12,SE,139,0.0,9.0,78,0.00,,RMK 146.475 MHz QRV !SN!,0.00,WUHU216DAVISVP2,2014-01-21 13:59:00,
2014-01-21 09:04:00,10.8,5.3,30.12,ESE,120,2.0,9.0,78,0.00,,RMK 146.475 MHz QRV !SN!,0.00,WUHU216DAVISVP2,2014-01-21 14:04:00,
2014-01-21 09:09:00,10.7,5.2,30.12,ESE,102,0.0,9.0,78,0.00,,RMK 146.475 MHz QRV !SN!,0.00,WUHU216DAVISVP2,2014-01-21 14:09:00,
2014-01-21 09:14:00,10.5,5.0,30.13,SSE,166,4.0,9.0,78,0.00,,RMK 146.475 MHz QRV !SN!,0.00,WUHU216DAVISVP2,2014-01-21 14:14:00,
2014-01-21 09:19:00,10.5,5.3,30.13,SSE,149,2.0,9.0,79,0.00,,RMK 146.475 MHz QRV !SN!,0.00,WUHU216DAVISVP2,2014-01-21 14:19:00,
2014-01-21 09:24:00,10.5,5.3,30.13,SSW,198,4.0,9.0,79,0.00,,RMK 146.475 MHz QRV !SN!,0.00,WUHU216DAVISVP2,2014-01-21 14:24:00,
2014-01-21 09:29:00,10.6,5.4,30.12,South,183,3.0,8.0,79,0.00,,RMK 146.475 MHz QRV !SN!,0.00,WUHU216DAVISVP2,2014-01-21 14:29:00,
2014-01-21 09:34:00,10.5,5.3,30.13,SE,145,6.0,10.0,79,0.00,,RMK 146.475 MHz QRV !SN!,0.00,WUHU216DAVISVP2,2014-01-21 14:34:00,
2014-01-21 09:39:00,10.5,5.3,30.13,South,187,7.0,10.0,79,0.00,,RMK 146.475 MHz QRV !SN!,0.00,WUHU216DAVISVP2,2014-01-21 14:39:00,
2014-01-21 09:43:00,10.6,5.4,30.13,SSE,165,3.0,10.0,79,0.00,,RMK 146.475 MHz QRV !SN!,0.00,WUHU216DAVISVP2,2014-01-21 14:43:00,
2014-01-21 09:49:00,10.6,5.1,30.13,SSE,159,1.0,10.0,78,0.00,,RMK 146.475 MHz QRV !SN!,0.00,WUHU216DAVISVP2,2014-01-21 14:49:00,
2014-01-21 09:54:00,10.9,5.4,30.13,SW,224,6.0,10.0,78,0.00,,RMK 146.475 MHz QRV !SN!,0.00,WUHU216DAVISVP2,2014-01-21 14:54:00,
2014-01-21 09:58:00,11.1,5.6,30.13,South,174,2.0,13.0,78,0.00,,RMK 146.475 MHz QRV !SN!,0.00,WUHU216DAVISVP2,2014-01-21 14:58:00,
2014-01-21 10:04:00,11.3,5.5,30.13,SW,215,6.0,13.0,77,0.00,,RMK 146.475 MHz QRV !SN!,0.00,WUHU216DAVISVP2,2014-01-21 15:04:00,
2014-01-21 10:08:00,11.4,5.3,30.13,South,187,4.0,13.0,76,0.00,,RMK 146.475 MHz QRV !SN!,0.00,WUHU216DAVISVP2,2014-01-21 15:08:00,
2014-01-21 10:14:00,11.5,5.1,30.13,SSE,163,1.0,13.0,75,0.00,,RMK 146.475 MHz QRV !SN!,0.00,WUHU216DAVISVP2,2014-01-21 15:14:00,
2014-01-21 10:19:00,11.7,5.3,30.14,South,188,2.0,11.0,75,0.00,,RMK 146.475 MHz QRV !SN!,0.00,WUHU216DAVISVP2,2014-01-21 15:19:00,
2014-01-21 10:24:00,11.9,5.2,30.14,SSE,149,2.0,9.0,74,0.00,,RMK 146.475 MHz QRV !SN!,0.00,WUHU216DAVISVP2,2014-01-21 15:24:00,
2014-01-21 10:29:00,12.2,5.5,30.14,South,172,3.0,8.0,74,0.00,,RMK 146.475 MHz QRV !SN!,0.00,WUHU216DAVISVP2,2014-01-21 15:29:00,
2014-01-21 10:34:00,12.5,6.1,30.14,SSW,203,0.0,8.0,75,0.00,,RMK 146.475 MHz QRV !SN!,0.00,WUHU216DAVISVP2,2014-01-21 15:34:00,
2014-01-21 10:38:00,12.9,6.2,30.14,SSW,201,4.0,8.0,74,0.00,,RMK 146.475 MHz QRV !SN!,0.00,WUHU216DAVISVP2,2014-01-21 15:38:00,
2014-01-21 10:43:00,12.7,6.3,30.14,SSE,165,1.0,9.0,75,0.00,,RMK 146.475 MHz QRV !SN!,0.00,WUHU216DAVISVP2,2014-01-21 15:43:00,
2014-01-21 10:48:00,12.1,5.7,30.15,SSW,194,4.0,14.0,75,0.00,,RMK 146.475 MHz QRV !SN!,0.00,WUHU216DAVISVP2,2014-01-21 15:48:00,
2014-01-21 10:53:00,11.1,5.3,30.15,South,183,3.0,14.0,77,0.00,,RMK 146.475 MHz QRV !SN!,0.00,WUHU216DAVISVP2,2014-01-21 15:53:00,
2014-01-21 10:58:00,10.6,5.1,30.15,South,174,1.0,14.0,78,0.00,,RMK 146.475 MHz QRV !SN!,0.00,WUHU216DAVISVP2,2014-01-21 15:58:00,
2014-01-21 11:03:00,10.6,5.4,30.15,SE,138,5.0,14.0,79,0.00,,RMK 146.475 MHz QRV !SN!,0.00,WUHU216DAVISVP2,2014-01-21 16:03:00,
2014-01-21 11:08:00,11.2,6.2,30.15,SSE,161,3.0,11.0,80,0.00,,RMK 146.475 MHz QRV !SN!,0.00,WUHU216DAVISVP2,2014-01-21 16:08:00,
2014-01-21 11:13:00,11.9,6.9,30.15,SW,218,3.0,11.0,80,0.00,,RMK 146.475 MHz QRV !SN!,0.00,WUHU216DAVISVP2,2014-01-21 16:13:00,
2014-01-21 11:18:00,12.0,6.5,30.15,South,188,6.0,14.0,78,0.00,,RMK 146.475 MHz QRV !SN!,0.00,WUHU216DAVISVP2,2014-01-21 16:18:00,
2014-01-21 11:23:00,11.2,5.7,30.16,WSW,256,4.0,14.0,78,0.00,,RMK 146.475 MHz QRV !SN!,0.00,WUHU216DAVISVP2,2014-01-21 16:23:00,
2014-01-21 11:28:00,11.0,6.0,30.16,SSE,160,4.0,14.0,80,0.00,,RMK 146.475 MHz QRV !SN!,0.00,WUHU216DAVISVP2,2014-01-21 16:28:00,
2014-01-21 11:33:00,10.6,5.4,30.16,SW,226,7.0,14.0,79,0.00,,RMK 146.475 MHz QRV !SN!,0.00,WUHU216DAVISVP2,2014-01-21 16:33:00,
2014-01-21 11:38:00,10.9,5.9,30.16,SSW,203,8.0,10.0,80,0.00,,RMK 146.475 MHz QRV !SN!,0.00,WUHU216DAVISVP2,2014-01-21 16:38:00,
2014-01-21 11:43:00,11.1,6.1,30.15,South,176,1.0,11.0,80,0.00,,RMK 146.475 MHz QRV !SN!,0.00,WUHU216DAVISVP2,2014-01-21 16:43:00,
2014-01-21 11:48:00,11.0,5.5,30.15,South,172,5.0,11.0,78,0.00,,RMK 146.475 MHz QRV !SN!,0.00,WUHU216DAVISVP2,2014-01-21 16:48:00,
2014-01-21 11:53:00,10.5,5.3,30.15,South,171,0.0,11.0,79,0.00,,RMK 146.475 MHz QRV !SN!,0.00,WUHU216DAVISVP2,2014-01-21 16:53:00,
2014-01-21 11:58:00,10.6,5.4,30.15,SSW,194,2.0,12.0,79,0.00,,RMK 146.475 MHz QRV !SN!,0.00,WUHU216DAVISVP2,2014-01-21 16:58:00,
2014-01-21 12:03:00,10.5,5.0,30.15,South,188,2.0,12.0,78,0.00,,RMK 146.475 MHz QRV !SN!,0.00,WUHU216DAVISVP2,2014-01-21 17:03:00,
2014-01-21 12:08:00,10.5,4.7,30.15,South,190,10.0,12.0,77,0.00,,RMK 146.475 MHz QRV !SN!,0.00,WUHU216DAVISVP2,2014-01-21 17:08:00,
2014-01-21 12:13:00,10.4,4.4,30.15,South,187,2.0,12.0,76,0.00,,RMK 146.475 MHz QRV !SN!,0.00,WUHU216DAVISVP2,2014-01-21 17:13:00,
2014-01-21 12:18:00,10.7,4.6,30.15,SSW,208,6.0,12.0,76,0.00,,RMK 146.475 MHz QRV !SN!,0.00,WUHU216DAVISVP2,2014-01-21 17:18:00,
2014-01-21 12:23:00,10.0,3.7,30.15,SW,226,5.0,13.0,75,0.00,,RMK 146.475 MHz QRV !SN!,0.00,WUHU216DAVISVP2,2014-01-21 17:23:00,
2014-01-21 12:28:00,9.6,3.0,30.15,South,187,3.0,13.0,74,0.00,,RMK 146.475 MHz QRV !SN!,0.00,WUHU216DAVISVP2,2014-01-21 17:28:00,
2014-01-21 12:33:00,10.2,3.3,30.15,SE,138,2.0,13.0,73,0.00,,RMK 146.475 MHz QRV !SN!,0.00,WUHU216DAVISVP2,2014-01-21 17:33:00,
2014-01-21 12:38:00,10.4,2.0,30.15,SSW,205,4.0,16.0,68,0.00,,RMK 146.475 MHz QRV !SN!,0.00,WUHU216DAVISVP2,2014-01-21 17:38:00,
2014-01-21 12:43:00,10.9,1.8,30.14,SE,146,3.0,16.0,66,0.00,,RMK 146.475 MHz QRV !SN!,0.00,WUHU216DAVISVP2,2014-01-21 17:43:00,
2014-01-21 12:48:00,10.7,1.3,30.14,South,179,3.0,16.0,65,0.00,,RMK 146.475 MHz QRV !SN!,0.00,WUHU216DAVISVP2,2014-01-21 17:48:00,
2014-01-21 12:53:00,11.3,2.5,30.14,South,176,1.0,16.0,67,0.00,,RMK 146.475 MHz QRV !SN!,0.00,WUHU216DAVISVP2,2014-01-21 17:53:00,
2014-01-21 12:58:00,11.6,1.8,30.14,South,188,8.0,15.0,64,0.00,,RMK 146.475 MHz QRV !SN!,0.00,WUHU216DAVISVP2,2014-01-21 17:58:00,
2014-01-21 13:03:00,11.2,0.4,30.15,SSW,206,3.0,15.0,61,0.00,,RMK 146.475 MHz QRV !SN!,0.00,WUHU216DAVISVP2,2014-01-21 18:03:00,
2014-01-21 13:08:00,11.4,1.3,30.15,WSW,237,7.0,15.0,63,0.00,,RMK 146.475 MHz QRV !SN!,0.00,WUHU216DAVISVP2,2014-01-21 18:08:00,
2014-01-21 13:13:00,11.5,0.3,30.14,SSW,193,2.0,15.0,60,0.00,,RMK 146.475 MHz QRV !SN!,0.00,WUHU216DAVISVP2,2014-01-21 18:13:00,
2014-01-21 13:18:00,11.8,1.0,30.14,SSW,200,9.0,15.0,61,0.00,,RMK 146.475 MHz QRV !SN!,0.00,WUHU216DAVISVP2,2014-01-21 18:18:00,
2014-01-21 13:24:00,11.5,0.6,30.14,SSE,162,3.0,15.0,61,0.00,,RMK 146.475 MHz QRV !SN!,0.00,WUHU216DAVISVP2,2014-01-21 18:24:00,
2014-01-21 13:28:00,11.7,0.8,30.14,SSW,197,4.0,14.0,61,0.00,,RMK 146.475 MHz QRV !SN!,0.00,WUHU216DAVISVP2,2014-01-21 18:28:00,
2014-01-21 13:34:00,11.3,-0.2,30.14,SE,127,3.0,14.0,59,0.00,,RMK 146.475 MHz QRV !SN!,0.00,WUHU216DAVISVP2,2014-01-21 18:34:00,
2014-01-21 13:39:00,11.3,0.1,30.14,SW,221,3.0,14.0,60,0.00,,RMK 146.475 MHz QRV !SN!,0.00,WUHU216DAVISVP2,2014-01-21 18:39:00,
2014-01-21 13:44:00,11.0,-0.5,30.14,South,173,3.0,15.0,59,0.00,,RMK 146.475 MHz QRV !SN!,0.00,WUHU216DAVISVP2,2014-01-21 18:44:00,
2014-01-21 13:49:00,11.1,0.7,30.15,WSW,242,4.0,15.0,62,0.00,,RMK 146.475 MHz QRV !SN!,0.00,WUHU216DAVISVP2,2014-01-21 18:49:00,
2014-01-21 13:54:00,11.1,0.7,30.15,SSW,203,2.0,16.0,62,0.00,,RMK 146.475 MHz QRV !SN!,0.00,WUHU216DAVISVP2,2014-01-21 18:54:00,
2014-01-21 13:59:00,11.0,1.2,30.15,SW,215,5.0,16.0,64,0.00,,RMK 146.475 MHz QRV !SN!,0.00,WUHU216DAVISVP2,2014-01-21 18:59:00,
2014-01-21 14:04:00,10.9,1.5,30.15,SE,146,8.0,16.0,65,0.00,,RMK 146.475 MHz QRV !SN!,0.00,WUHU216DAVISVP2,2014-01-21 19:04:00,
2014-01-21 14:09:00,10.5,0.8,30.15,SE,145,2.0,16.0,64,0.00,,RMK 146.475 MHz QRV !SN!,0.00,WUHU216DAVISVP2,2014-01-21 19:09:00,
2014-01-21 14:14:00,10.7,1.6,30.15,WSW,238,8.0,16.0,66,0.00,,RMK 146.475 MHz QRV !SN!,0.00,WUHU216DAVISVP2,2014-01-21 19:14:00,
2014-01-21 14:19:00,10.2,0.8,30.15,SSW,195,3.0,15.0,65,0.00,,RMK 146.475 MHz QRV !SN!,0.00,WUHU216DAVISVP2,2014-01-21 19:19:00,
2014-01-21 14:24:00,9.8,0.8,30.15,SW,218,4.0,14.0,66,0.00,,RMK 146.475 MHz QRV !SN!,0.00,WUHU216DAVISVP2,2014-01-21 19:24:00,
2014-01-21 14:29:00,10.0,1.0,30.15,South,174,3.0,13.0,66,0.00,,RMK 146.475 MHz QRV !SN!,0.00,WUHU216DAVISVP2,2014-01-21 19:29:00,
2014-01-21 14:34:00,10.6,1.5,30.15,SSE,150,0.0,13.0,66,0.00,,RMK 146.475 MHz QRV !SN!,0.00,WUHU216DAVISVP2,2014-01-21 19:34:00,
2014-01-21 14:39:00,10.7,1.3,30.15,SSW,207,2.0,12.0,65,0.00,,RMK 146.475 MHz QRV !SN!,0.00,WUHU216DAVISVP2,2014-01-21 19:39:00,
2014-01-21 14:44:00,10.6,0.9,30.15,SSE,165,6.0,12.0,64,0.00,,RMK 146.475 MHz QRV !SN!,0.00,WUHU216DAVISVP2,2014-01-21 19:44:00,
2014-01-21 14:49:00,9.9,-0.5,30.15,South,169,4.0,14.0,62,0.00,,RMK 146.475 MHz QRV !SN!,0.00,WUHU216DAVISVP2,2014-01-21 19:49:00,
2014-01-21 14:54:00,9.5,-0.5,30.15,SSE,158,1.0,19.0,63,0.00,,RMK 146.475 MHz QRV !SN!,0.00,WUHU216DAVISVP2,2014-01-21 19:54:00,
2014-01-21 14:59:00,9.6,-0.5,30.15,SSE,164,4.0,19.0,63,0.00,,RMK 146.475 MHz QRV !SN!,0.00,WUHU216DAVISVP2,2014-01-21 19:59:00,
2014-01-21 15:04:00,9.5,-0.9,30.15,SW,224,2.0,19.0,62,0.00,,RMK 146.475 MHz QRV !SN!,0.00,WUHU216DAVISVP2,2014-01-21 20:04:00,
2014-01-21 15:09:00,9.5,-0.5,30.15,SE,139,2.0,19.0,63,0.00,,RMK 146.475 MHz QRV !SN!,0.00,WUHU216DAVISVP2,2014-01-21 20:09:00,
2014-01-21 15:14:00,9.9,-0.1,30.16,SSW,200,6.0,15.0,63,0.00,,RMK 146.475 MHz QRV !SN!,0.00,WUHU216DAVISVP2,2014-01-21 20:14:00,
2014-01-21 15:19:00,9.7,-1.0,30.15,South,170,2.0,13.0,61,0.00,,RMK 146.475 MHz QRV !SN!,0.00,WUHU216DAVISVP2,2014-01-21 20:19:00,
2014-01-21 15:24:00,9.7,-1.0,30.16,SSE,162,2.0,13.0,61,0.00,,RMK 146.475 MHz QRV !SN!,0.00,WUHU216DAVISVP2,2014-01-21 20:24:00,
2014-01-21 15:29:00,9.6,-1.1,30.16,WSW,256,3.0,12.0,61,0.00,,RMK 146.475 MHz QRV !SN!,0.00,WUHU216DAVISVP2,2014-01-21 20:29:00,
2014-01-21 15:34:00,9.5,-1.2,30.16,South,190,2.0,10.0,61,0.00,,RMK 146.475 MHz QRV !SN!,0.00,WUHU216DAVISVP2,2014-01-21 20:34:00,
2014-01-21 15:39:00,9.3,-2.1,30.17,SSW,211,7.0,10.0,59,0.00,,RMK 146.475 MHz QRV !SN!,0.00,WUHU216DAVISVP2,2014-01-21 20:39:00,
2014-01-21 15:44:00,9.1,-1.9,30.17,South,169,7.0,11.0,60,0.00,,RMK 146.475 MHz QRV !SN!,0.00,WUHU216DAVISVP2,2014-01-21 20:44:00,
2014-01-21 15:49:00,9.0,-2.0,30.17,SSW,211,2.0,11.0,60,0.00,,RMK 146.475 MHz QRV !SN!,0.00,WUHU216DAVISVP2,2014-01-21 20:49:00,
2014-01-21 15:54:00,8.9,-2.1,30.17,South,184,1.0,13.0,60,0.00,,RMK 146.475 MHz QRV !SN!,0.00,WUHU216DAVISVP2,2014-01-21 20:54:00,
2014-01-21 15:59:00,8.9,-1.8,30.18,SW,222,8.0,15.0,61,0.00,,RMK 146.475 MHz QRV !SN!,0.00,WUHU216DAVISVP2,2014-01-21 20:59:00,
2014-01-21 16:04:00,8.5,-2.2,30.17,South,184,6.0,15.0,61,0.00,,RMK 146.475 MHz QRV !SN!,0.00,WUHU216DAVISVP2,2014-01-21 21:04:00,
2014-01-21 16:09:00,8.2,-2.1,30.18,ESE,123,6.0,15.0,62,0.00,,RMK 146.475 MHz QRV !SN!,0.00,WUHU216DAVISVP2,2014-01-21 21:09:00,
2014-01-21 16:14:00,7.9,-2.7,30.18,SW,219,5.0,15.0,61,0.00,,RMK 146.475 MHz QRV !SN!,0.00,WUHU216DAVISVP2,2014-01-21 21:14:00,
2014-01-21 16:19:00,7.6,-3.4,30.18,South,179,9.0,15.0,60,0.00,,RMK 146.475 MHz QRV !SN!,0.00,WUHU216DAVISVP2,2014-01-21 21:19:00,
2014-01-21 16:24:00,7.2,-3.4,30.18,South,181,4.0,13.0,61,0.00,,RMK 146.475 MHz QRV !SN!,0.00,WUHU216DAVISVP2,2014-01-21 21:24:00,
2014-01-21 16:29:00,7.0,-3.6,30.19,SSE,153,7.0,17.0,61,0.00,,RMK 146.475 MHz QRV !SN!,0.00,WUHU216DAVISVP2,2014-01-21 21:29:00,
2014-01-21 16:34:00,6.9,-3.4,30.19,SSW,204,4.0,17.0,62,0.00,,RMK 146.475 MHz QRV !SN!,0.00,WUHU216DAVISVP2,2014-01-21 21:34:00,
2014-01-21 16:39:00,6.8,-3.4,30.19,SSE,162,0.0,17.0,62,0.00,,RMK 146.475 MHz QRV !SN!,0.00,WUHU216DAVISVP2,2014-01-21 21:39:00,
2014-01-21 16:44:00,6.7,-3.2,30.19,SSE,159,0.0,17.0,63,0.00,,RMK 146.475 MHz QRV !SN!,0.00,WUHU216DAVISVP2,2014-01-21 21:44:00,
2014-01-21 16:49:00,6.7,-2.9,30.19,SSW,211,5.0,10.0,64,0.00,,RMK 146.475 MHz QRV !SN!,0.00,WUHU216DAVISVP2,2014-01-21 21:49:00,
2014-01-21 16:54:00,6.5,-3.0,30.19,SSE,158,6.0,10.0,64,0.00,,RMK 146.475 MHz QRV !SN!,0.00,WUHU216DAVISVP2,2014-01-21 21:54:00,
2014-01-21 16:59:00,6.3,-3.3,30.19,SSW,205,4.0,13.0,64,0.00,,RMK 146.475 MHz QRV !SN!,0.00,WUHU216DAVISVP2,2014-01-21 21:59:00,
2014-01-21 17:04:00,6.2,-3.1,30.20,South,176,2.0,13.0,65,0.00,,RMK 146.475 MHz QRV !SN!,0.00,WUHU216DAVISVP2,2014-01-21 22:04:00,
2014-01-21 17:09:00,6.1,-3.1,30.20,SE,141,1.0,13.0,65,0.00,,RMK 146.475 MHz QRV !SN!,0.00,WUHU216DAVISVP2,2014-01-21 22:09:00,
2014-01-21 17:14:00,6.1,-3.1,30.20,SW,218,2.0,13.0,65,0.00,,RMK 146.475 MHz QRV !SN!,0.00,WUHU216DAVISVP2,2014-01-21 22:14:00,
2014-01-21 17:19:00,5.9,-3.3,30.20,SSE,165,1.0,11.0,65,0.00,,RMK 146.475 MHz QRV !SN!,0.00,WUHU216DAVISVP2,2014-01-21 22:19:00,
2014-01-21 17:24:00,5.7,-3.5,30.20,South,174,2.0,13.0,65,0.00,,RMK 146.475 MHz QRV !SN!,0.00,WUHU216DAVISVP2,2014-01-21 22:24:00,
2014-01-21 17:29:00,5.6,-2.9,30.20,SE,124,4.0,13.0,67,0.00,,RMK 146.475 MHz QRV !SN!,0.00,WUHU216DAVISVP2,2014-01-21 22:29:00,
2014-01-21 17:34:00,5.5,-3.1,30.20,SSE,149,2.0,13.0,67,0.00,,RMK 146.475 MHz QRV !SN!,0.00,WUHU216DAVISVP2,2014-01-21 22:34:00,
2014-01-21 17:39:00,5.5,-3.0,30.20,South,170,8.0,13.0,67,0.00,,RMK 146.475 MHz QRV !SN!,0.00,WUHU216DAVISVP2,2014-01-21 22:39:00,
2014-01-21 17:44:00,5.4,-3.1,30.21,South,173,8.0,13.0,67,0.00,,RMK 146.475 MHz QRV !SN!,0.00,WUHU216DAVISVP2,2014-01-21 22:44:00,
2014-01-21 17:49:00,5.4,-3.1,30.21,South,180,2.0,14.0,67,0.00,,RMK 146.475 MHz QRV !SN!,0.00,WUHU216DAVISVP2,2014-01-21 22:49:00,
2014-01-21 17:54:00,5.3,-3.0,30.21,SW,225,12.0,14.0,68,0.00,,RMK 146.475 MHz QRV !SN!,0.00,WUHU216DAVISVP2,2014-01-21 22:54:00,
2014-01-21 17:59:00,5.4,-2.8,30.22,SSE,155,6.0,14.0,68,0.00,,RMK 146.475 MHz QRV !SN!,0.00,WUHU216DAVISVP2,2014-01-21 22:59:00,
2014-01-21 18:04:00,5.4,-2.5,30.22,ESE,109,1.0,14.0,69,0.00,,RMK 146.475 MHz QRV !SN!,0.00,WUHU216DAVISVP2,2014-01-21 23:04:00,
2014-01-21 18:09:00,5.4,-2.8,30.22,SW,217,4.0,11.0,68,0.00,,RMK 146.475 MHz QRV !SN!,0.00,WUHU216DAVISVP2,2014-01-21 23:09:00,
2014-01-21 18:14:00,5.5,-2.8,30.22,SSW,193,5.0,11.0,68,0.00,,RMK 146.475 MHz QRV !SN!,0.00,WUHU216DAVISVP2,2014-01-21 23:14:00,
2014-01-21 18:19:00,5.4,-2.8,30.23,South,169,3.0,14.0,68,0.00,,RMK 146.475 MHz QRV !SN!,0.00,WUHU216DAVISVP2,2014-01-21 23:19:00,
2014-01-21 18:24:00,5.3,-3.2,30.23,South,181,1.0,14.0,67,0.00,,RMK 146.475 MHz QRV !SN!,0.00,WUHU216DAVISVP2,2014-01-21 23:24:00,
2014-01-21 18:29:00,5.2,-3.6,30.23,South,180,4.0,14.0,66,0.00,,RMK 146.475 MHz QRV !SN!,0.00,WUHU216DAVISVP2,2014-01-21 23:29:00,
2014-01-21 18:34:00,5.2,-4.0,30.23,SSE,158,3.0,14.0,65,0.00,,RMK 146.475 MHz QRV !SN!,0.00,WUHU216DAVISVP2,2014-01-21 23:34:00,
2014-01-21 18:39:00,5.0,-4.1,30.23,SE,138,0.0,14.0,65,0.00,,RMK 146.475 MHz QRV !SN!,0.00,WUHU216DAVISVP2,2014-01-21 23:39:00,
2014-01-21 18:44:00,5.0,-4.1,30.23,South,183,7.0,14.0,65,0.00,,RMK 146.475 MHz QRV !SN!,0.00,WUHU216DAVISVP2,2014-01-21 23:44:00,
2014-01-21 18:49:00,4.9,-4.2,30.23,SE,138,0.0,12.0,65,0.00,,RMK 146.475 MHz QRV !SN!,0.00,WUHU216DAVISVP2,2014-01-21 23:49:00,
2014-01-21 18:54:00,4.8,-4.0,30.23,SE,142,2.0,12.0,66,0.00,,RMK 146.475 MHz QRV !SN!,0.00,WUHU216DAVISVP2,2014-01-21 23:54:00,
2014-01-21 18:59:00,4.8,-3.7,30.23,South,177,3.0,12.0,67,0.00,,RMK 146.475 MHz QRV !SN!,0.00,WUHU216DAVISVP2,2014-01-21 23:59:00,
2014-01-21 19:04:00,4.8,-3.7,30.23,South,174,1.0,10.0,67,0.00,,RMK 146.475 MHz QRV !SN!,0.00,WUHU216DAVISVP2,2014-01-22 00:04:00,
2014-01-21 19:09:00,4.7,-3.5,30.24,South,181,2.0,9.0,68,0.00,,RMK 146.475 MHz QRV !SN!,0.00,WUHU216DAVISVP2,2014-01-22 00:09:00,
2014-01-21 19:14:00,4.7,-3.5,30.23,SSE,163,0.0,9.0,68,0.00,,RMK 146.475 MHz QRV !SN!,0.00,WUHU216DAVISVP2,2014-01-22 00:14:00,
2014-01-21 19:19:00,4.6,-3.3,30.24,SSE,165,2.0,7.0,69,0.00,,RMK 146.475 MHz QRV !SN!,0.00,WUHU216DAVISVP2,2014-01-22 00:19:00,
2014-01-21 19:24:00,4.6,-3.3,30.24,SE,141,4.0,7.0,69,0.00,,RMK 146.475 MHz QRV !SN!,0.00,WUHU216DAVISVP2,2014-01-22 00:24:00,
2014-01-21 19:29:00,4.6,-3.3,30.24,SSW,200,5.0,8.0,69,0.00,,RMK 146.475 MHz QRV !SN!,0.00,WUHU216DAVISVP2,2014-01-22 00:29:00,
2014-01-21 19:34:00,4.6,-3.3,30.24,South,169,3.0,8.0,69,0.00,,RMK 146.475 MHz QRV !SN!,0.00,WUHU216DAVISVP2,2014-01-22 00:34:00,
2014-01-21 19:39:00,4.6,-3.3,30.24,SE,145,0.0,8.0,69,0.00,,RMK 146.475 MHz QRV !SN!,0.00,WUHU216DAVISVP2,2014-01-22 00:39:00,
2014-01-21 19:44:00,4.5,-3.4,30.24,SSE,154,3.0,8.0,69,0.00,,RMK 146.475 MHz QRV !SN!,0.00,WUHU216DAVISVP2,2014-01-22 00:44:00,
2014-01-21 19:49:00,4.5,-3.4,30.24,South,181,1.0,8.0,69,0.00,,RMK 146.475 MHz QRV !SN!,0.00,WUHU216DAVISVP2,2014-01-22 00:49:00,
2014-01-21 19:54:00,4.5,-3.1,30.24,SSE,155,1.0,9.0,70,0.00,,RMK 146.475 MHz QRV !SN!,0.00,WUHU216DAVISVP2,2014-01-22 00:54:00,
2014-01-21 19:59:00,4.5,-3.1,30.24,South,179,0.0,9.0,70,0.00,,RMK 146.475 MHz QRV !SN!,0.00,WUHU216DAVISVP2,2014-01-22 00:59:00,
2014-01-21 20:04:00,4.5,-3.1,30.24,SE,136,1.0,9.0,70,0.00,,RMK 146.475 MHz QRV !SN!,0.00,WUHU216DAVISVP2,2014-01-22 01:04:00,
2014-01-21 20:09:00,4.6,-2.7,30.24,South,188,4.0,9.0,71,0.00,,RMK 146.475 MHz QRV !SN!,0.00,WUHU216DAVISVP2,2014-01-22 01:09:00,
2014-01-21 20:14:00,4.5,-2.8,30.24,South,169,1.0,7.0,71,0.00,,RMK 146.475 MHz QRV !SN!,0.00,WUHU216DAVISVP2,2014-01-22 01:14:00,
2014-01-21 20:19:00,4.5,-2.5,30.24,South,190,6.0,7.0,72,0.00,,RMK 146.475 MHz QRV !SN!,0.00,WUHU216DAVISVP2,2014-01-22 01:19:00,
2014-01-21 20:24:00,4.5,-2.5,30.24,SSE,152,0.0,7.0,72,0.00,,RMK 146.475 MHz QRV !SN!,0.00,WUHU216DAVISVP2,2014-01-22 01:24:00,
2014-01-21 20:29:00,4.5,-2.5,30.24,South,181,2.0,7.0,72,0.00,,RMK 146.475 MHz QRV !SN!,0.00,WUHU216DAVISVP2,2014-01-22 01:29:00,
2014-01-21 20:34:00,4.6,-2.4,30.24,SSW,205,3.0,7.0,72,0.00,,RMK 146.475 MHz QRV !SN!,0.00,WUHU216DAVISVP2,2014-01-22 01:34:00,
2014-01-21 20:39:00,4.5,-2.8,30.24,SSW,208,6.0,8.0,71,0.00,,RMK 146.475 MHz QRV !SN!,0.00,WUHU216DAVISVP2,2014-01-22 01:39:00,
2014-01-21 20:44:00,4.6,-3.0,30.24,SSE,160,4.0,8.0,70,0.00,,RMK 146.475 MHz QRV !SN!,0.00,WUHU216DAVISVP2,2014-01-22 01:44:00,
2014-01-21 20:49:00,4.5,-3.1,30.24,SSE,160,4.0,11.0,70,0.00,,RMK 146.475 MHz QRV !SN!,0.00,WUHU216DAVISVP2,2014-01-22 01:49:00,
2014-01-21 20:54:00,4.5,-3.1,30.24,SSE,166,3.0,11.0,70,0.00,,RMK 146.475 MHz QRV !SN!,0.00,WUHU216DAVISVP2,2014-01-22 01:54:00,
2014-01-21 20:59:00,4.4,-3.2,30.24,SE,132,6.0,11.0,70,0.00,,RMK 146.475 MHz QRV !SN!,0.00,WUHU216DAVISVP2,2014-01-22 01:59:00,
2014-01-21 21:04:00,4.4,-3.2,30.24,South,174,4.0,11.0,70,0.00,,RMK 146.475 MHz QRV !SN!,0.00,WUHU216DAVISVP2,2014-01-22 02:04:00,
2014-01-21 21:09:00,4.4,-3.2,30.24,SSE,147,0.0,9.0,70,0.00,,RMK 146.475 MHz QRV !SN!,0.00,WUHU216DAVISVP2,2014-01-22 02:09:00,
2014-01-21 21:14:00,4.3,-3.0,30.24,SSE,148,0.0,9.0,71,0.00,,RMK 146.475 MHz QRV !SN!,0.00,WUHU216DAVISVP2,2014-01-22 02:14:00,
2014-01-21 21:19:00,4.2,-3.1,30.24,South,176,0.0,8.0,71,0.00,,RMK 146.475 MHz QRV !SN!,0.00,WUHU216DAVISVP2,2014-01-22 02:19:00,
2014-01-21 21:24:00,4.1,-2.9,30.24,SSE,153,1.0,8.0,72,0.00,,RMK 146.475 MHz QRV !SN!,0.00,WUHU216DAVISVP2,2014-01-22 02:24:00,
2014-01-21 21:29:00,4.0,-3.0,30.24,SSE,148,0.0,8.0,72,0.00,,RMK 146.475 MHz QRV !SN!,0.00,WUHU216DAVISVP2,2014-01-22 02:29:00,
2014-01-21 21:34:00,4.0,-2.7,30.24,SSW,203,8.0,9.0,73,0.00,,RMK 146.475 MHz QRV !SN!,0.00,WUHU216DAVISVP2,2014-01-22 02:34:00,
2014-01-21 21:39:00,4.0,-2.7,30.24,South,183,3.0,9.0,73,0.00,,RMK 146.475 MHz QRV !SN!,0.00,WUHU216DAVISVP2,2014-01-22 02:39:00,
2014-01-21 21:44:00,4.0,-2.7,30.24,ESE,121,2.0,9.0,73,0.00,,RMK 146.475 MHz QRV !SN!,0.00,WUHU216DAVISVP2,2014-01-22 02:44:00,
2014-01-21 21:49:00,3.9,-2.8,30.24,South,178,3.0,9.0,73,0.00,,RMK 146.475 MHz QRV !SN!,0.00,WUHU216DAVISVP2,2014-01-22 02:49:00,
2014-01-21 21:54:00,3.9,-2.8,30.24,South,176,1.0,11.0,73,0.00,,RMK 146.475 MHz QRV !SN!,0.00,WUHU216DAVISVP2,2014-01-22 02:54:00,
2014-01-21 21:59:00,3.9,-2.8,30.24,SSW,204,5.0,11.0,73,0.00,,RMK 146.475 MHz QRV !SN!,0.00,WUHU216DAVISVP2,2014-01-22 02:59:00,
2014-01-21 22:04:00,3.8,-2.9,30.24,SE,125,4.0,11.0,73,0.00,,RMK 146.475 MHz QRV !SN!,0.00,WUHU216DAVISVP2,2014-01-22 03:04:00,
2014-01-21 22:09:00,3.8,-2.9,30.24,SSE,152,1.0,11.0,73,0.00,,RMK 146.475 MHz QRV !SN!,0.00,WUHU216DAVISVP2,2014-01-22 03:09:00,
2014-01-21 22:14:00,3.7,-3.0,30.24,SE,130,0.0,8.0,73,0.00,,RMK 146.475 MHz QRV !SN!,0.00,WUHU216DAVISVP2,2014-01-22 03:14:00,
2014-01-21 22:19:00,3.7,-3.0,30.24,SSE,163,4.0,8.0,73,0.00,,RMK 146.475 MHz QRV !SN!,0.00,WUHU216DAVISVP2,2014-01-22 03:19:00,
2014-01-21 22:24:00,3.7,-2.7,30.24,SSE,153,4.0,8.0,74,0.00,,RMK 146.475 MHz QRV !SN!,0.00,WUHU216DAVISVP2,2014-01-22 03:24:00,
2014-01-21 22:29:00,3.6,-2.8,30.24,SSE,159,6.0,7.0,74,0.00,,RMK 146.475 MHz QRV !SN!,0.00,WUHU216DAVISVP2,2014-01-22 03:29:00,
2014-01-21 22:34:00,3.6,-2.8,30.24,South,174,3.0,7.0,74,0.00,,RMK 146.475 MHz QRV !SN!,0.00,WUHU216DAVISVP2,2014-01-22 03:34:00,
2014-01-21 22:39:00,3.6,-3.1,30.24,South,172,5.0,10.0,73,0.00,,RMK 146.475 MHz QRV !SN!,0.00,WUHU216DAVISVP2,2014-01-22 03:39:00,
2014-01-21 22:44:00,3.6,-3.1,30.24,SE,143,0.0,10.0,73,0.00,,RMK 146.475 MHz QRV !SN!,0.00,WUHU216DAVISVP2,2014-01-22 03:44:00,
2014-01-21 22:49:00,3.5,-3.2,30.24,SE,145,3.0,10.0,73,0.00,,RMK 146.475 MHz QRV !SN!,0.00,WUHU216DAVISVP2,2014-01-22 03:49:00,
2014-01-21 22:54:00,3.5,-3.2,30.24,SE,143,2.0,10.0,73,0.00,,RMK 146.475 MHz QRV !SN!,0.00,WUHU216DAVISVP2,2014-01-22 03:54:00,
2014-01-21 22:59:00,3.4,-3.6,30.24,SSE,168,5.0,8.0,72,0.00,,RMK 146.475 MHz QRV !SN!,0.00,WUHU216DAVISVP2,2014-01-22 03:59:00,
2014-01-21 23:04:00,3.4,-3.8,30.24,SSE,162,4.0,9.0,71,0.00,,RMK 146.475 MHz QRV !SN!,0.00,WUHU216DAVISVP2,2014-01-22 04:04:00,
2014-01-21 23:09:00,3.4,-3.8,30.24,South,169,0.0,9.0,71,0.00,,RMK 146.475 MHz QRV !SN!,0.00,WUHU216DAVISVP2,2014-01-22 04:09:00,
2014-01-21 23:14:00,3.4,-3.8,30.24,SSW,198,4.0,9.0,71,0.00,,RMK 146.475 MHz QRV !SN!,0.00,WUHU216DAVISVP2,2014-01-22 04:14:00,
2014-01-21 23:19:00,3.4,-3.8,30.24,South,172,2.0,8.0,71,0.00,,RMK 146.475 MHz QRV !SN!,0.00,WUHU216DAVISVP2,2014-01-22 04:19:00,
2014-01-21 23:24:00,3.5,-4.1,30.24,SSW,200,1.0,8.0,70,0.00,,RMK 146.475 MHz QRV !SN!,0.00,WUHU216DAVISVP2,2014-01-22 04:24:00,
2014-01-21 23:29:00,3.5,-4.1,30.24,South,169,1.0,9.0,70,0.00,,RMK 146.475 MHz QRV !SN!,0.00,WUHU216DAVISVP2,2014-01-22 04:29:00,
2014-01-21 23:34:00,3.4,-4.1,30.24,SSE,150,1.0,9.0,70,0.00,,RMK 146.475 MHz QRV !SN!,0.00,WUHU216DAVISVP2,2014-01-22 04:34:00,
2014-01-21 23:38:00,3.4,-4.2,30.24,SSE,152,1.0,9.0,70,0.00,,RMK 146.475 MHz QRV !SN!,0.00,WUHU216DAVISVP2,2014-01-22 04:38:00,
2014-01-21 23:43:00,3.4,-4.1,30.24,SSE,165,4.0,9.0,70,0.00,,RMK 146.475 MHz QRV !SN!,0.00,WUHU216DAVISVP2,2014-01-22 04:43:00,
2014-01-21 23:48:00,3.3,-4.2,30.23,SE,143,0.0,9.0,70,0.00,,RMK 146.475 MHz QRV !SN!,0.00,WUHU216DAVISVP2,2014-01-22 04:48:00,
2014-01-21 23:53:00,3.3,-4.2,30.24,SSE,149,1.0,9.0,70,0.00,,RMK 146.475 MHz QRV !SN!,0.00,WUHU216DAVISVP2,2014-01-22 04:53:00,
2014-01-21 23:59:00,3.2,-4.3,30.23,South,170,0.0,6.0,70,0.00,,RMK 146.475 MHz QRV !SN!,0.00,WUHU216DAVISVP2,2014-01-22 04:59:00,